createdAt,value
2023-05-03T00:01:56.604Z,15.13
2023-05-03T00:04:22.991Z,15.02
2023-05-03T00:06:49.464Z,15.05
2023-05-03T00:09:15.921Z,14.96
2023-05-03T00:11:42.280Z,14.90
2023-05-03T00:14:08.761Z,14.80
2023-05-03T00:16:35.156Z,14.81
2023-05-03T00:19:01.516Z,15.04
2023-05-03T00:21:28.051Z,15.17
2023-05-03T00:23:54.506Z,15.25
2023-05-03T00:26:21.036Z,15.31
2023-05-03T00:28:47.508Z,15.34
2023-05-03T00:31:14.032Z,15.37
2023-05-03T00:33:40.408Z,15.38
2023-05-03T00:36:06.891Z,15.41
2023-05-03T00:38:33.325Z,15.43
2023-05-03T00:40:59.788Z,15.42
2023-05-03T00:43:26.202Z,15.44
2023-05-03T00:45:57.146Z,15.43
2023-05-03T00:48:19.095Z,15.44
2023-05-03T00:50:45.538Z,15.45
2023-05-03T00:53:12.069Z,15.44
2023-05-03T00:55:38.581Z,15.44
2023-05-03T00:58:04.948Z,15.45
2023-05-03T01:00:31.339Z,15.44
2023-05-03T01:02:57.878Z,15.44
2023-05-03T01:05:24.238Z,15.43
2023-05-03T01:07:50.691Z,15.44
2023-05-03T01:10:17.315Z,15.43
2023-05-03T01:12:43.687Z,15.42
2023-05-03T01:15:10.185Z,15.41
2023-05-03T01:17:36.710Z,15.39
2023-05-03T01:20:03.294Z,15.39
2023-05-03T01:22:32.132Z,15.39
2023-05-03T01:24:55.912Z,15.37
2023-05-03T01:27:22.421Z,15.37
2023-05-03T01:29:48.883Z,15.37
2023-05-03T01:32:15.336Z,15.36
2023-05-03T01:34:41.817Z,15.36
2023-05-03T01:37:08.261Z,15.35
2023-05-03T01:39:34.629Z,15.33
2023-05-03T01:42:01.256Z,15.32
2023-05-03T01:44:27.639Z,15.32
2023-05-03T01:46:54.045Z,15.30
2023-05-03T01:49:20.491Z,15.29
2023-05-03T01:51:46.984Z,15.29
2023-05-03T01:54:13.510Z,15.29
2023-05-03T01:56:40.182Z,15.29
2023-05-03T01:59:06.564Z,15.27
2023-05-03T02:01:33.109Z,15.26
2023-05-03T02:03:59.491Z,15.25
2023-05-03T02:06:25.899Z,15.24
2023-05-03T02:08:52.384Z,15.22
2023-05-03T02:11:18.846Z,15.22
2023-05-03T02:13:45.378Z,15.21
2023-05-03T02:16:11.904Z,15.20
2023-05-03T02:18:38.410Z,15.19
2023-05-03T02:21:04.809Z,15.17
2023-05-03T02:23:31.467Z,15.16
2023-05-03T02:25:58.024Z,15.16
2023-05-03T02:28:24.492Z,15.15
2023-05-03T02:30:50.967Z,15.15
2023-05-03T02:33:17.375Z,15.14
2023-05-03T02:35:43.782Z,15.13
2023-05-03T02:38:10.144Z,15.12
2023-05-03T02:40:36.650Z,15.11
2023-05-03T02:43:03.046Z,15.11
2023-05-03T02:45:29.489Z,15.10
2023-05-03T02:47:56.035Z,15.09
2023-05-03T02:50:22.491Z,15.08
2023-05-03T02:52:48.903Z,15.07
2023-05-03T02:55:15.519Z,15.07
2023-05-03T02:57:42.706Z,15.07
2023-05-03T03:00:08.310Z,15.06
2023-05-03T03:02:34.837Z,15.07
2023-05-03T03:05:03.736Z,15.06
2023-05-03T03:07:27.690Z,15.06
2023-05-03T03:09:54.153Z,15.06
2023-05-03T03:12:20.504Z,15.04
2023-05-03T03:14:47.027Z,15.05
2023-05-03T03:17:13.582Z,15.04
2023-05-03T03:19:39.916Z,15.04
2023-05-03T03:22:06.329Z,15.03
2023-05-03T03:24:33.031Z,15.03
2023-05-03T03:26:59.559Z,15.03
2023-05-03T03:29:25.906Z,15.04
2023-05-03T03:31:52.413Z,15.02
2023-05-03T03:34:18.769Z,15.01
2023-05-03T03:36:45.303Z,15.00
2023-05-03T03:39:11.714Z,15.00
2023-05-03T03:41:38.186Z,15.01
2023-05-03T03:44:04.628Z,15.00
2023-05-03T03:46:31.161Z,15.00
2023-05-03T03:48:57.567Z,15.00
2023-05-03T03:51:23.990Z,15.00
2023-05-03T03:53:50.496Z,15.00
2023-05-03T03:56:16.985Z,15.01
2023-05-03T03:58:43.352Z,15.02
2023-05-03T04:01:09.885Z,15.03
2023-05-03T04:03:36.251Z,15.03
2023-05-03T04:06:04.595Z,15.03
2023-05-03T04:08:29.323Z,15.04
2023-05-03T04:10:55.761Z,15.05
2023-05-03T04:13:22.247Z,15.05
2023-05-03T04:15:48.598Z,15.06
2023-05-03T04:18:15.143Z,15.07
2023-05-03T04:20:41.606Z,15.07
2023-05-03T04:23:08.100Z,15.08
2023-05-03T04:25:34.591Z,15.08
2023-05-03T04:28:00.955Z,15.07
2023-05-03T04:30:27.384Z,15.08
2023-05-03T04:32:53.835Z,15.08
2023-05-03T04:35:20.207Z,15.08
2023-05-03T04:37:46.582Z,15.08
2023-05-03T04:40:13.057Z,15.07
2023-05-03T04:42:39.578Z,15.06
2023-05-03T04:45:06.315Z,15.05
2023-05-03T04:47:32.808Z,15.04
2023-05-03T04:49:59.448Z,15.01
2023-05-03T04:52:25.848Z,14.99
2023-05-03T04:54:52.349Z,14.94
2023-05-03T04:57:18.927Z,14.84
2023-05-03T04:59:47.095Z,14.78
2023-05-03T05:02:13.459Z,14.76
2023-05-03T05:04:39.903Z,14.70
2023-05-03T05:07:06.394Z,14.64
2023-05-03T05:09:32.811Z,14.61
2023-05-03T05:11:59.401Z,14.60
2023-05-03T05:14:25.898Z,14.53
2023-05-03T05:16:52.381Z,14.49
2023-05-03T05:19:18.832Z,14.44
2023-05-03T05:21:45.245Z,14.43
2023-05-03T05:24:11.710Z,14.43
2023-05-03T05:26:38.169Z,14.42
2023-05-03T05:29:04.581Z,14.42
2023-05-03T05:31:31.176Z,14.40
2023-05-03T05:33:57.570Z,14.40
2023-05-03T05:36:24.078Z,14.43
2023-05-03T05:38:50.524Z,14.43
2023-05-03T05:41:17.109Z,14.45
2023-05-03T05:43:43.534Z,14.48
2023-05-03T05:46:10.004Z,14.50
2023-05-03T05:48:36.501Z,14.52
2023-05-03T05:51:02.989Z,14.49
2023-05-03T05:53:29.733Z,14.41
2023-05-03T05:55:56.085Z,14.40
2023-05-03T05:58:22.526Z,14.36
2023-05-03T06:00:57.813Z,14.33
2023-05-03T06:03:24.419Z,14.35
2023-05-03T06:05:50.806Z,14.35
2023-05-03T06:08:17.289Z,14.32
2023-05-03T06:10:43.788Z,14.30
2023-05-03T06:13:10.375Z,14.19
2023-05-03T06:15:36.754Z,14.11
2023-05-03T06:18:05.842Z,14.07
2023-05-03T06:20:29.959Z,14.05
2023-05-03T06:22:56.490Z,14.07
2023-05-03T06:25:22.918Z,14.09
2023-05-03T06:27:49.454Z,13.92
2023-05-03T06:30:16.022Z,13.98
2023-05-03T06:32:42.488Z,14.06
2023-05-03T06:35:08.995Z,14.10
2023-05-03T06:37:35.500Z,14.16
2023-05-03T06:40:02.128Z,14.21
2023-05-03T06:42:28.498Z,14.24
2023-05-03T06:44:55.220Z,14.29
2023-05-03T06:47:22.587Z,14.33
2023-05-03T06:49:49.128Z,14.36
2023-05-03T06:52:15.399Z,14.37
2023-05-03T06:54:42.402Z,14.39
2023-05-03T06:57:08.891Z,14.37
2023-05-03T06:59:35.351Z,14.29
2023-05-03T07:02:01.899Z,14.17
2023-05-03T07:04:28.351Z,14.11
2023-05-03T07:06:56.659Z,14.12
2023-05-03T07:09:28.697Z,14.16
2023-05-03T07:11:47.920Z,14.17
2023-05-03T07:14:14.491Z,14.21
2023-05-03T07:16:40.919Z,14.25
2023-05-03T07:19:07.660Z,14.25
2023-05-03T07:21:34.084Z,14.21
2023-05-03T07:24:00.491Z,14.23
2023-05-03T07:26:26.901Z,14.23
2023-05-03T07:28:53.335Z,14.31
2023-05-03T07:31:19.766Z,14.28
2023-05-03T07:33:46.368Z,14.24
2023-05-03T07:36:12.619Z,14.20
2023-05-03T07:38:39.073Z,14.22
2023-05-03T07:41:05.599Z,14.25
2023-05-03T07:43:32.076Z,14.31
2023-05-03T07:45:58.803Z,14.35
2023-05-03T07:48:24.954Z,14.38
2023-05-03T07:50:51.452Z,14.40
2023-05-03T07:53:17.931Z,14.31
2023-05-03T07:55:44.354Z,14.26
2023-05-03T07:58:10.782Z,14.32
2023-05-03T08:00:37.414Z,14.42
2023-05-03T08:03:04.005Z,14.52
2023-05-03T08:05:30.462Z,14.60
2023-05-03T08:07:56.881Z,14.63
2023-05-03T08:10:23.575Z,14.63
2023-05-03T08:12:49.937Z,14.63
2023-05-03T08:15:16.279Z,14.66
2023-05-03T08:17:42.892Z,14.73
2023-05-03T08:20:10.183Z,14.84
2023-05-03T08:22:36.698Z,15.03
2023-05-03T08:25:03.255Z,15.24
2023-05-03T08:27:29.809Z,15.45
2023-05-03T08:29:56.430Z,15.68
2023-05-03T08:32:22.833Z,15.90
2023-05-03T08:34:49.358Z,16.10
2023-05-03T08:37:15.824Z,16.32
2023-05-03T08:39:42.261Z,16.47
2023-05-03T08:42:08.679Z,16.57
2023-05-03T08:44:35.217Z,16.76
2023-05-03T08:47:01.859Z,16.95
2023-05-03T08:49:28.128Z,17.25
2023-05-03T08:51:54.909Z,17.53
2023-05-03T08:54:21.322Z,17.74
2023-05-03T08:56:47.768Z,17.98
2023-05-03T08:59:14.238Z,18.15
2023-05-03T09:01:40.776Z,18.29
2023-05-03T09:04:09.489Z,18.28
2023-05-03T09:06:33.789Z,18.32
2023-05-03T09:09:00.184Z,18.42
2023-05-03T09:11:26.594Z,18.53
2023-05-03T09:13:53.079Z,18.61
2023-05-03T09:16:19.725Z,18.70
2023-05-03T09:18:46.122Z,18.76
2023-05-03T09:21:12.500Z,18.84
2023-05-03T09:23:39.081Z,18.87
2023-05-03T09:26:05.550Z,19.05
2023-05-03T09:28:31.913Z,19.17
2023-05-03T09:30:58.442Z,19.37
2023-05-03T09:33:24.912Z,19.63
2023-05-03T09:35:51.331Z,19.82
2023-05-03T09:38:17.794Z,20.02
2023-05-03T09:40:44.209Z,20.15
2023-05-03T09:43:10.674Z,20.09
2023-05-03T09:45:37.141Z,19.99
2023-05-03T09:48:03.580Z,19.94
2023-05-03T09:50:29.923Z,19.87
2023-05-03T09:52:56.824Z,19.78
2023-05-03T09:55:25.293Z,19.89
2023-05-03T09:57:51.701Z,19.95
2023-05-03T10:00:19.224Z,20.02
2023-05-03T10:02:45.926Z,20.23
2023-05-03T10:05:12.308Z,20.53
2023-05-03T10:07:38.769Z,20.80
2023-05-03T10:10:05.154Z,20.94
2023-05-03T10:12:31.574Z,20.94
2023-05-03T10:14:58.030Z,20.86
2023-05-03T10:17:35.331Z,20.87
2023-05-03T10:19:50.834Z,20.86
2023-05-03T10:22:17.256Z,20.94
2023-05-03T10:24:43.670Z,21.15
2023-05-03T10:27:10.118Z,21.47
2023-05-03T10:29:36.525Z,21.58
2023-05-03T10:32:02.909Z,21.60
2023-05-03T10:34:29.301Z,21.49
2023-05-03T10:36:55.878Z,21.39
2023-05-03T10:39:22.302Z,21.33
2023-05-03T10:41:48.629Z,21.34
2023-05-03T10:44:15.081Z,21.36
2023-05-03T10:46:41.573Z,21.25
2023-05-03T10:49:08.004Z,21.20
2023-05-03T10:51:34.450Z,21.08
2023-05-03T10:54:00.963Z,21.02
2023-05-03T10:56:27.362Z,21.02
2023-05-03T10:58:53.931Z,20.97
2023-05-03T11:01:20.456Z,20.88
2023-05-03T11:03:46.772Z,20.76
2023-05-03T11:06:13.268Z,20.65
2023-05-03T11:08:39.643Z,20.62
2023-05-03T11:11:06.200Z,20.61
2023-05-03T11:13:32.643Z,20.66
2023-05-03T11:15:59.045Z,20.69
2023-05-03T11:18:25.412Z,20.65
2023-05-03T11:20:51.846Z,20.61
2023-05-03T11:23:18.209Z,20.57
2023-05-03T11:25:44.678Z,20.50
2023-05-03T11:28:11.098Z,20.52
2023-05-03T11:30:37.646Z,20.50
2023-05-03T11:33:04.082Z,20.45
2023-05-03T11:35:30.611Z,20.43
2023-05-03T11:37:57.049Z,20.37
2023-05-03T11:40:23.423Z,20.42
2023-05-03T11:42:50.116Z,20.45
2023-05-03T11:45:21.459Z,20.47
2023-05-03T11:47:45.489Z,20.48
2023-05-03T11:50:12.051Z,20.56
2023-05-03T11:52:38.415Z,20.59
2023-05-03T11:55:05.233Z,20.57
2023-05-03T11:57:31.308Z,20.54
2023-05-03T11:59:57.698Z,20.56
2023-05-03T12:02:24.281Z,20.50
2023-05-03T12:04:51.054Z,20.51
2023-05-03T12:07:19.502Z,20.60
2023-05-03T12:09:45.276Z,20.72
2023-05-03T12:12:11.398Z,20.70
2023-05-03T12:14:36.556Z,20.65
2023-05-03T12:17:02.764Z,20.62
2023-05-03T12:19:32.216Z,20.55
2023-05-03T12:22:18.027Z,20.56
2023-05-03T12:24:24.304Z,20.47
2023-05-03T12:26:48.933Z,20.41
2023-05-03T12:29:15.194Z,20.37
2023-05-03T12:31:43.907Z,20.29
2023-05-03T12:34:31.719Z,20.14
2023-05-03T12:36:37.055Z,19.99
2023-05-03T12:39:02.061Z,19.84
2023-05-03T12:42:00.862Z,19.73
2023-05-03T12:43:53.757Z,19.70
2023-05-03T12:46:33.831Z,19.63
2023-05-03T12:48:46.942Z,19.59
2023-05-03T12:53:39.557Z,19.54
2023-05-03T12:56:06.788Z,19.46
2023-05-03T12:58:56.624Z,19.34
2023-05-03T13:03:32.802Z,19.23
2023-05-03T13:05:51.991Z,19.15
2023-05-03T13:08:21.370Z,19.13
2023-05-03T13:10:44.714Z,19.02
2023-05-03T13:13:11.857Z,18.86
2023-05-03T13:15:38.267Z,18.76
2023-05-03T13:18:04.793Z,18.67
2023-05-03T13:20:33.549Z,18.61
2023-05-03T13:22:59.932Z,18.51
2023-05-03T13:25:26.395Z,18.41
2023-05-03T13:27:52.925Z,18.35
2023-05-03T13:30:19.389Z,18.26
2023-05-03T13:32:45.861Z,18.24
2023-05-03T13:35:12.266Z,18.20
2023-05-03T13:37:38.710Z,18.15
2023-05-03T13:40:05.581Z,17.99
2023-05-03T13:42:31.583Z,17.93
2023-05-03T13:44:58.098Z,17.89
2023-05-03T13:47:24.788Z,17.77
2023-05-03T13:49:50.947Z,17.66
2023-05-03T13:52:17.688Z,17.61
2023-05-03T13:54:44.241Z,17.55
2023-05-03T13:57:10.648Z,17.45
2023-05-03T13:59:37.094Z,17.31
2023-05-03T14:02:03.636Z,17.27
2023-05-03T14:04:30.009Z,17.17
2023-05-03T14:06:56.456Z,17.10
2023-05-03T14:09:22.909Z,17.02
2023-05-03T14:11:50.441Z,16.98
2023-05-03T14:14:16.960Z,16.96
2023-05-03T14:16:43.380Z,16.90
2023-05-03T14:19:09.755Z,16.85
2023-05-03T14:21:36.134Z,16.83
2023-05-03T14:24:02.557Z,16.80
2023-05-03T14:26:28.966Z,16.79
2023-05-03T14:28:55.481Z,16.77
2023-05-03T14:31:22.023Z,16.80
2023-05-03T14:33:48.418Z,16.73
2023-05-03T14:36:14.788Z,16.64
2023-05-03T14:38:41.465Z,16.52
2023-05-03T14:41:07.904Z,16.48
2023-05-03T14:43:34.377Z,16.48
2023-05-03T14:46:00.806Z,16.44
2023-05-03T14:48:27.199Z,16.39
2023-05-03T14:50:53.564Z,16.32
2023-05-03T14:53:20.115Z,16.27
2023-05-03T14:55:46.496Z,16.21
2023-05-03T14:58:12.956Z,16.11
2023-05-03T15:00:39.437Z,16.07
2023-05-03T15:03:05.971Z,16.07
2023-05-03T15:05:32.299Z,16.06
2023-05-03T15:07:58.719Z,16.02
2023-05-03T15:10:25.163Z,15.98
2023-05-03T15:12:51.600Z,15.92
2023-05-03T15:15:17.936Z,15.87
2023-05-03T15:17:44.372Z,15.82
2023-05-03T15:20:10.766Z,15.81
2023-05-03T15:22:37.178Z,15.78
2023-05-03T15:25:03.644Z,15.79
2023-05-03T15:27:30.114Z,15.79
2023-05-03T15:29:56.463Z,15.76
2023-05-03T15:32:22.944Z,15.76
2023-05-03T15:34:49.332Z,15.76
2023-05-03T15:37:15.770Z,15.76
2023-05-03T15:39:42.201Z,15.80
2023-05-03T15:42:08.627Z,15.84
2023-05-03T15:44:35.050Z,15.89
2023-05-03T15:47:01.473Z,15.91
2023-05-03T15:49:27.852Z,15.86
2023-05-03T15:51:54.243Z,15.84
2023-05-03T15:54:20.910Z,15.80
2023-05-03T15:56:47.322Z,15.77
2023-05-03T15:59:13.817Z,15.72
2023-05-03T16:01:40.329Z,15.68
2023-05-03T16:04:06.670Z,15.65
2023-05-03T16:06:33.087Z,15.65
2023-05-03T16:08:59.462Z,15.62
2023-05-03T16:11:25.924Z,15.35
2023-05-03T16:13:52.491Z,15.35
2023-05-03T16:16:18.953Z,15.40
2023-05-03T16:18:45.847Z,15.44
2023-05-03T16:21:12.247Z,15.44
2023-05-03T16:23:38.768Z,15.40
2023-05-03T16:26:05.190Z,15.40
2023-05-03T16:28:31.648Z,15.35
2023-05-03T16:30:58.155Z,15.29
2023-05-03T16:33:24.514Z,15.27
2023-05-03T16:35:50.979Z,15.26
2023-05-03T16:38:17.430Z,15.26
2023-05-03T16:40:43.858Z,15.25
2023-05-03T16:43:10.261Z,15.26
2023-05-03T16:45:36.729Z,15.25
2023-05-03T16:48:06.037Z,15.21
2023-05-03T16:50:29.453Z,15.21
2023-05-03T16:52:55.952Z,15.19
2023-05-03T16:55:22.486Z,15.20
2023-05-03T16:57:48.906Z,15.18
2023-05-03T17:00:15.398Z,15.17
2023-05-03T17:02:41.833Z,15.16
2023-05-03T17:05:08.191Z,15.12
2023-05-03T17:07:34.607Z,15.11
2023-05-03T17:10:01.133Z,15.13
2023-05-03T17:12:27.498Z,15.10
2023-05-03T17:14:54.005Z,15.05
2023-05-03T17:17:20.445Z,15.07
2023-05-03T17:19:46.898Z,15.05
2023-05-03T17:22:13.307Z,15.01
2023-05-03T17:24:39.683Z,14.95
2023-05-03T17:27:06.085Z,14.90
2023-05-03T17:29:32.699Z,14.90
2023-05-03T17:31:59.143Z,14.93
2023-05-03T17:34:25.820Z,14.92
2023-05-03T17:36:52.296Z,14.90
2023-05-03T17:39:18.660Z,14.86
2023-05-03T17:41:45.169Z,14.83
2023-05-03T17:44:11.595Z,14.85
2023-05-03T17:46:38.055Z,14.87
2023-05-03T17:49:04.439Z,14.83
2023-05-03T17:51:31.051Z,14.79
2023-05-03T17:53:57.461Z,14.73
2023-05-03T17:56:23.801Z,14.71
2023-05-03T17:58:50.385Z,14.69
2023-05-03T18:01:19.013Z,14.68
2023-05-03T18:03:45.406Z,14.62
2023-05-03T18:06:11.848Z,14.60
2023-05-03T18:08:38.276Z,14.58
2023-05-03T18:11:04.747Z,14.60
2023-05-03T18:13:31.174Z,14.56
2023-05-03T18:15:57.613Z,14.53
2023-05-03T18:18:23.953Z,14.52
2023-05-03T18:20:50.613Z,14.52
2023-05-03T18:23:17.105Z,14.48
2023-05-03T18:25:43.598Z,14.47
2023-05-03T18:28:11.550Z,14.48
2023-05-03T18:30:36.732Z,14.48
2023-05-03T18:33:04.397Z,14.49
2023-05-03T18:35:30.769Z,14.47
2023-05-03T18:37:57.581Z,14.44
2023-05-03T18:40:24.043Z,14.44
2023-05-03T18:42:50.541Z,14.44
2023-05-03T18:45:17.118Z,14.40
2023-05-03T18:47:43.557Z,14.39
2023-05-03T18:50:10.190Z,14.36
2023-05-03T18:52:36.663Z,14.33
2023-05-03T18:55:03.112Z,14.27
2023-05-03T18:57:29.766Z,14.24
2023-05-03T19:00:00.760Z,14.24
2023-05-03T19:02:22.489Z,14.21
2023-05-03T19:04:49.957Z,14.20
2023-05-03T19:07:16.455Z,14.20
2023-05-03T19:09:42.826Z,14.21
2023-05-03T19:12:09.252Z,14.16
2023-05-03T19:14:35.715Z,14.13
2023-05-03T19:17:02.247Z,14.15
2023-05-03T19:19:29.176Z,14.15
2023-05-03T19:21:55.560Z,14.14
2023-05-03T19:24:21.980Z,14.12
2023-05-03T19:26:50.756Z,14.11
2023-05-03T19:29:17.219Z,14.09
2023-05-03T19:31:43.927Z,14.07
2023-05-03T19:34:10.684Z,14.07
2023-05-03T19:36:36.902Z,14.03
2023-05-03T19:39:03.436Z,14.01
2023-05-03T19:41:30.145Z,14.00
2023-05-03T19:43:56.611Z,13.97
2023-05-03T19:46:23.194Z,13.84
2023-05-03T19:48:49.549Z,13.84
2023-05-03T19:51:15.997Z,13.83
2023-05-03T19:53:42.550Z,13.83
2023-05-03T19:56:09.104Z,13.79
2023-05-03T19:58:35.687Z,13.79
2023-05-03T20:01:02.564Z,13.80
2023-05-03T20:03:29.249Z,13.81
2023-05-03T20:05:55.775Z,13.78
2023-05-03T20:08:22.480Z,13.77
2023-05-03T20:10:49.021Z,13.76
2023-05-03T20:13:19.004Z,13.75
2023-05-03T20:15:45.311Z,13.74
2023-05-03T20:18:11.813Z,13.71
2023-05-03T20:20:38.348Z,13.69
2023-05-03T20:23:04.823Z,13.68
2023-05-03T20:25:31.343Z,13.64
2023-05-03T20:28:00.524Z,13.63
2023-05-03T20:30:24.481Z,13.63
2023-05-03T20:32:51.007Z,13.64
2023-05-03T20:35:17.542Z,13.62
2023-05-03T20:37:44.089Z,13.63
2023-05-03T20:40:10.740Z,13.62
2023-05-03T20:42:37.281Z,13.61
2023-05-03T20:45:03.716Z,13.59
2023-05-03T20:47:30.445Z,13.56
2023-05-03T20:49:56.940Z,13.55
2023-05-03T20:52:23.515Z,13.53
2023-05-03T20:54:50.021Z,13.55
2023-05-03T20:57:16.769Z,13.55
2023-05-03T20:59:43.282Z,13.52
2023-05-03T21:02:09.999Z,13.50
2023-05-03T21:04:36.282Z,13.48
2023-05-03T21:07:02.932Z,13.50
2023-05-03T21:09:29.359Z,13.48
2023-05-03T21:11:55.963Z,13.45
2023-05-03T21:14:22.725Z,13.48
2023-05-03T21:16:49.806Z,13.48
2023-05-03T21:19:16.263Z,13.47
2023-05-03T21:21:42.721Z,13.48
2023-05-03T21:24:09.220Z,13.48
2023-05-03T21:26:35.730Z,13.49
2023-05-03T21:29:02.250Z,13.50
2023-05-03T21:31:28.912Z,13.49
2023-05-03T21:33:55.435Z,13.47
2023-05-03T21:36:22.058Z,13.46
2023-05-03T21:38:48.977Z,13.44
2023-05-03T21:41:15.258Z,13.45
2023-05-03T21:43:41.804Z,13.45
2023-05-03T21:46:08.280Z,13.44
2023-05-03T21:48:34.801Z,13.42
2023-05-03T21:51:01.673Z,13.37
2023-05-03T21:53:28.275Z,13.36
2023-05-03T21:55:54.759Z,13.34
2023-05-03T21:58:21.378Z,13.33
2023-05-03T22:00:47.829Z,13.32
2023-05-03T22:03:14.473Z,13.34
2023-05-03T22:05:41.035Z,13.33
2023-05-03T22:08:07.638Z,13.30
2023-05-03T22:10:34.083Z,13.30
2023-05-03T22:13:00.695Z,13.29
2023-05-03T22:15:27.342Z,13.28
2023-05-03T22:17:53.860Z,13.27
2023-05-03T22:20:20.318Z,13.26
2023-05-03T22:22:46.989Z,13.23
2023-05-03T22:25:13.736Z,13.22
2023-05-03T22:27:40.256Z,13.21
2023-05-03T22:30:06.888Z,13.19
2023-05-03T22:32:33.281Z,13.20
2023-05-03T22:34:59.804Z,13.19
2023-05-03T22:37:28.573Z,13.15
2023-05-03T22:39:53.348Z,13.13
2023-05-03T22:42:19.880Z,13.11
2023-05-03T22:44:49.293Z,13.10
2023-05-03T22:47:17.693Z,13.10
2023-05-03T22:49:48.998Z,13.11
2023-05-03T22:52:13.687Z,13.10
2023-05-03T22:54:40.248Z,13.07
2023-05-03T22:57:09.858Z,13.06
2023-05-03T22:59:38.192Z,13.05
2023-05-03T23:02:03.430Z,13.03
2023-05-03T23:04:29.903Z,13.00
2023-05-03T23:06:56.476Z,12.96
2023-05-03T23:09:23.083Z,12.96
2023-05-03T23:11:49.670Z,12.98
2023-05-03T23:14:16.133Z,12.99
2023-05-03T23:16:42.884Z,12.96
2023-05-03T23:19:09.750Z,12.96
2023-05-03T23:21:36.198Z,12.97
2023-05-03T23:24:06.859Z,12.95
2023-05-03T23:26:33.827Z,12.94
2023-05-03T23:29:00.415Z,12.93
2023-05-03T23:31:31.599Z,12.93
2023-05-03T23:33:59.228Z,12.93
2023-05-03T23:36:25.274Z,12.94
2023-05-03T23:38:53.296Z,12.95
2023-05-03T23:41:26.522Z,12.94
2023-05-03T23:43:53.214Z,12.94
2023-05-03T23:46:20.098Z,12.95
2023-05-03T23:48:48.544Z,12.94
2023-05-03T23:51:17.638Z,12.94
2023-05-03T23:53:46.576Z,12.94
2023-05-03T23:56:13.256Z,12.95
2023-05-03T23:58:37.994Z,12.95
